createdAt,value
2019-01-22T00:04:14.223Z,-4.30
2019-01-22T00:09:17.607Z,-4.30
2019-01-22T00:14:21.000Z,-4.30
2019-01-22T00:19:24.382Z,-4.30
2019-01-22T00:24:27.763Z,-4.30
2019-01-22T00:29:31.143Z,-4.30
2019-01-22T00:34:34.527Z,-4.40
2019-01-22T00:39:38.122Z,-4.40
2019-01-22T00:44:41.543Z,-4.40
2019-01-22T00:49:44.918Z,-4.40
2019-01-22T00:54:48.321Z,-4.40
2019-01-22T00:59:51.703Z,-4.40
2019-01-22T01:04:55.091Z,-4.40
2019-01-22T01:09:58.479Z,-4.40
2019-01-22T01:15:01.872Z,-4.40
2019-01-22T01:20:08.563Z,-4.40
2019-01-22T01:25:14.971Z,-4.50
2019-01-22T01:30:21.275Z,-4.50
2019-01-22T01:35:25.049Z,-4.50
2019-01-22T01:40:28.435Z,-4.50
2019-01-22T01:45:31.831Z,-4.60
2019-01-22T01:50:35.247Z,-4.60
2019-01-22T01:55:38.640Z,-4.60
2019-01-22T02:00:42.023Z,-4.70
2019-01-22T02:05:45.403Z,-4.70
2019-01-22T02:10:49.114Z,-4.80
2019-01-22T02:16:03.999Z,-4.80
2019-01-22T02:21:26.919Z,-4.90
2019-01-22T02:26:39.014Z,-4.90
2019-01-22T02:31:45.481Z,-4.90
2019-01-22T02:36:57.482Z,-4.90
2019-01-22T02:42:03.951Z,-5.00
2019-01-22T02:47:32.630Z,-5.00
2019-01-22T02:52:50.909Z,-5.00
2019-01-22T02:58:02.852Z,-5.00
2019-01-22T03:03:21.443Z,-5.00
2019-01-22T03:08:56.006Z,-5.10
2019-01-22T03:14:21.192Z,-5.00
2019-01-22T03:19:51.474Z,-5.00
2019-01-22T03:24:57.939Z,-5.00
2019-01-22T03:30:25.353Z,-5.00
2019-01-22T03:35:47.885Z,-5.00
2019-01-22T03:41:16.680Z,-5.00
2019-01-22T03:46:37.707Z,-4.90
2019-01-22T03:51:44.173Z,-4.90
2019-01-22T03:57:02.463Z,-4.90
2019-01-22T04:02:06.220Z,-4.90
2019-01-22T04:07:09.616Z,-4.90
2019-01-22T04:12:13.009Z,-4.80
2019-01-22T04:17:16.399Z,-4.90
2019-01-22T04:22:22.873Z,-4.80
2019-01-22T04:27:32.355Z,-4.80
2019-01-22T04:32:50.704Z,-4.80
2019-01-22T04:37:57.205Z,-4.80
2019-01-22T04:43:21.540Z,-4.70
2019-01-22T04:48:54.939Z,-4.70
2019-01-22T04:54:10.417Z,-4.70
2019-01-22T04:59:25.571Z,-4.70
2019-01-22T05:04:34.939Z,-4.70
2019-01-22T05:09:58.680Z,-4.60
2019-01-22T05:15:16.612Z,-4.60
2019-01-22T05:20:23.075Z,-4.60
2019-01-22T05:25:50.559Z,-4.60
2019-01-22T05:31:16.383Z,-4.50
2019-01-22T05:36:55.644Z,-4.50
2019-01-22T05:42:18.138Z,-4.50
2019-01-22T05:47:30.175Z,-4.50
2019-01-22T05:52:59.208Z,-4.40
2019-01-22T05:58:21.832Z,-4.40
2019-01-22T06:03:39.839Z,-4.40
2019-01-22T06:08:54.528Z,-4.40
2019-01-22T06:14:09.818Z,-4.30
2019-01-22T06:19:38.332Z,-4.30
2019-01-22T06:24:59.667Z,-4.30
2019-01-22T06:30:08.831Z,-4.30
2019-01-22T06:35:18.016Z,-4.20
2019-01-22T06:40:36.327Z,-4.20
2019-01-22T06:45:48.671Z,-4.20
2019-01-22T06:51:00.786Z,-4.20
2019-01-22T06:56:19.107Z,-4.20
2019-01-22T07:01:28.279Z,-4.10
2019-01-22T07:06:49.328Z,-4.10
2019-01-22T07:12:13.428Z,-4.10
2019-01-22T07:17:19.880Z,-4.10
2019-01-22T07:22:51.507Z,-4.00
2019-01-22T07:27:57.964Z,-4.00
2019-01-22T07:33:20.753Z,-4.00
2019-01-22T07:38:35.743Z,-4.00
2019-01-22T07:43:42.202Z,-3.90
2019-01-22T07:48:48.675Z,-3.90
2019-01-22T07:53:57.831Z,-3.90
2019-01-22T07:59:23.555Z,-3.80
2019-01-22T08:04:42.904Z,-3.80
2019-01-22T08:10:22.419Z,-3.80
2019-01-22T08:15:34.704Z,-3.70
2019-01-22T08:20:55.728Z,-3.70
2019-01-22T08:26:11.038Z,-3.70
2019-01-22T08:31:20.020Z,-3.60
2019-01-22T08:36:44.295Z,-3.60
2019-01-22T08:41:56.616Z,-3.60
2019-01-22T08:47:20.510Z,-3.50
2019-01-22T08:52:44.903Z,-3.50
2019-01-22T08:58:06.203Z,-3.40
2019-01-22T09:03:29.133Z,-3.40
2019-01-22T09:08:50.568Z,-3.40
2019-01-22T09:13:59.871Z,-3.30
2019-01-22T09:19:12.107Z,-3.30
2019-01-22T09:24:21.411Z,-3.30
2019-01-22T09:29:35.698Z,-3.20
2019-01-22T09:34:41.758Z,-3.20
2019-01-22T09:39:45.147Z,-3.10
2019-01-22T09:44:48.542Z,-3.10
2019-01-22T09:49:51.932Z,-3.10
2019-01-22T09:54:55.316Z,-3.00
2019-01-22T09:59:58.694Z,-3.00
2019-01-22T10:05:02.080Z,-3.00
2019-01-22T10:10:11.447Z,-2.90
2019-01-22T10:15:17.887Z,-2.90
2019-01-22T10:20:23.318Z,-2.90
2019-01-22T10:25:29.523Z,-2.80
2019-01-22T10:30:31.863Z,-2.80
2019-01-22T10:35:35.247Z,-2.70
2019-01-22T10:40:38.742Z,-2.70
2019-01-22T10:45:42.147Z,-2.70
2019-01-22T10:50:45.527Z,-2.70
2019-01-22T10:55:48.912Z,-2.60
2019-01-22T11:00:52.304Z,-2.60
2019-01-22T11:05:55.691Z,-2.60
2019-01-22T11:10:59.081Z,-2.50
2019-01-22T11:16:02.493Z,-2.50
2019-01-22T11:21:05.897Z,-2.50
2019-01-22T11:26:09.280Z,-2.40
2019-01-22T11:31:12.669Z,-2.40
2019-01-22T11:36:16.044Z,-2.40
2019-01-22T11:41:19.495Z,-2.40
2019-01-22T11:46:22.893Z,-2.30
2019-01-22T11:51:26.293Z,-2.30
2019-01-22T11:56:29.691Z,-2.30
2019-01-22T12:01:33.149Z,-2.20
2019-01-22T12:06:36.548Z,-2.20
2019-01-22T12:11:39.935Z,-2.20
2019-01-22T12:16:43.318Z,-2.20
2019-01-22T12:21:46.712Z,-2.20
2019-01-22T12:26:50.155Z,-2.10
2019-01-22T12:31:53.612Z,-2.10
2019-01-22T12:36:57.003Z,-2.10
2019-01-22T12:42:00.388Z,-2.10
2019-01-22T12:47:03.943Z,-2.00
2019-01-22T12:52:07.337Z,-2.00
2019-01-22T12:57:10.723Z,-2.00
2019-01-22T13:02:14.184Z,-2.00
2019-01-22T13:07:17.589Z,-1.90
2019-01-22T13:12:20.980Z,-1.90
2019-01-22T13:17:24.367Z,-1.90
2019-01-22T13:22:27.763Z,-1.90
2019-01-22T13:27:31.150Z,-1.90
2019-01-22T13:32:34.531Z,-1.90
2019-01-22T13:37:37.923Z,-1.90
2019-01-22T13:42:41.311Z,-1.90
2019-01-22T13:47:44.703Z,-1.80
2019-01-22T13:52:48.259Z,-1.90
2019-01-22T13:57:51.647Z,-1.80
2019-01-22T14:02:55.967Z,-1.80
2019-01-22T14:07:59.422Z,-1.80
2019-01-22T14:13:02.803Z,-1.80
2019-01-22T14:18:07.036Z,-1.80
2019-01-22T14:23:10.423Z,-1.80
2019-01-22T14:28:13.815Z,-1.80
2019-01-22T14:33:17.223Z,-1.80
2019-01-22T14:38:20.629Z,-1.80
2019-01-22T14:43:24.045Z,-1.80
2019-01-22T14:48:27.431Z,-1.80
2019-01-22T14:53:30.836Z,-1.80
2019-01-22T14:58:34.228Z,-1.80
2019-01-22T15:03:41.322Z,-1.80
2019-01-22T15:08:42.716Z,-1.80
2019-01-22T15:13:46.100Z,-1.80
2019-01-22T15:18:49.483Z,-1.80
2019-01-22T15:23:52.876Z,-1.80
2019-01-22T15:28:56.268Z,-1.80
2019-01-22T15:33:59.663Z,-1.80
2019-01-22T15:39:04.371Z,-1.80
2019-01-22T15:44:07.776Z,-1.80
2019-01-22T15:49:11.172Z,-1.80
2019-01-22T15:54:14.582Z,-1.80
2019-01-22T15:59:17.966Z,-1.80
2019-01-22T16:04:21.351Z,-1.80
2019-01-22T16:09:24.749Z,-1.80
2019-01-22T16:14:28.150Z,-1.80
2019-01-22T16:19:31.530Z,-1.80
2019-01-22T16:24:34.919Z,-1.80
2019-01-22T16:29:38.343Z,-1.80
2019-01-22T16:34:41.732Z,-1.80
2019-01-22T16:39:45.118Z,-1.80
2019-01-22T16:44:49.727Z,-1.80
2019-01-22T16:49:53.163Z,-1.80
2019-01-22T16:54:56.566Z,-1.80
2019-01-22T16:59:59.959Z,-1.90
2019-01-22T17:05:03.428Z,-1.90
2019-01-22T17:10:09.880Z,-1.90
2019-01-22T17:15:15.003Z,-1.90
2019-01-22T17:20:26.979Z,-1.90
2019-01-22T17:25:30.363Z,-1.90
2019-01-22T17:30:33.756Z,-1.90
2019-01-22T17:35:38.844Z,-2.00
2019-01-22T17:40:42.231Z,-2.00
2019-01-22T17:45:45.632Z,-2.00
2019-01-22T17:50:49.091Z,-2.00
2019-01-22T17:55:52.492Z,-2.00
2019-01-22T18:00:55.955Z,-2.00
2019-01-22T18:05:59.346Z,-2.00
2019-01-22T18:11:02.731Z,-2.00
2019-01-22T18:16:06.115Z,-2.10
2019-01-22T18:21:09.507Z,-2.00
2019-01-22T18:26:12.903Z,-2.10
2019-01-22T18:31:16.287Z,-2.10
2019-01-22T18:36:19.681Z,-2.10
2019-01-22T18:41:23.071Z,-2.10
2019-01-22T18:46:26.456Z,-2.10
2019-01-22T18:51:29.843Z,-2.10
2019-01-22T18:56:33.226Z,-2.10
2019-01-22T19:01:36.619Z,-2.20
2019-01-22T19:06:40.023Z,-2.20
2019-01-22T19:11:43.411Z,-2.20
2019-01-22T19:16:46.803Z,-2.20
2019-01-22T19:21:50.209Z,-2.20
2019-01-22T19:26:53.580Z,-2.20
2019-01-22T19:31:56.979Z,-2.20
2019-01-22T19:37:00.375Z,-2.20
2019-01-22T19:42:04.147Z,-2.20
2019-01-22T19:47:07.531Z,-2.20
2019-01-22T19:52:10.919Z,-2.20
2019-01-22T19:57:14.302Z,-2.20
2019-01-22T20:02:17.699Z,-2.20
2019-01-22T20:07:21.096Z,-2.30
2019-01-22T20:12:24.495Z,-2.30
2019-01-22T20:17:27.879Z,-2.30
2019-01-22T20:22:31.275Z,-2.30
2019-01-22T20:27:34.662Z,-2.30
2019-01-22T20:32:38.047Z,-2.30
2019-01-22T20:37:41.434Z,-2.30
2019-01-22T20:42:44.824Z,-2.40
2019-01-22T20:47:48.208Z,-2.40
2019-01-22T20:52:51.591Z,-2.40
2019-01-22T20:57:55.393Z,-2.40
2019-01-22T21:02:58.835Z,-2.40
2019-01-22T21:08:02.234Z,-2.40
2019-01-22T21:13:05.654Z,-2.40
2019-01-22T21:18:09.100Z,-2.40
2019-01-22T21:23:12.489Z,-2.40
2019-01-22T21:28:15.952Z,-2.40
2019-01-22T21:33:19.327Z,-2.50
2019-01-22T21:38:22.711Z,-2.50
2019-01-22T21:43:26.097Z,-2.50
2019-01-22T21:48:29.479Z,-2.50
2019-01-22T21:53:32.863Z,-2.60
2019-01-22T21:58:36.254Z,-2.50
2019-01-22T22:03:39.633Z,-2.60
2019-01-22T22:08:43.024Z,-2.60
2019-01-22T22:13:46.407Z,-2.60
2019-01-22T22:18:49.797Z,-2.70
2019-01-22T22:23:53.202Z,-2.70
2019-01-22T22:28:56.586Z,-2.70
2019-01-22T22:33:59.975Z,-2.70
2019-01-22T22:39:04.898Z,-2.70
2019-01-22T22:44:08.291Z,-2.80
2019-01-22T22:49:11.671Z,-2.80
2019-01-22T22:54:15.057Z,-2.80
2019-01-22T22:59:18.435Z,-2.80
2019-01-22T23:04:21.816Z,-2.80
2019-01-22T23:09:25.212Z,-2.80
2019-01-22T23:14:28.599Z,-2.90
2019-01-22T23:19:31.982Z,-2.90
2019-01-22T23:24:35.371Z,-2.90
2019-01-22T23:29:38.768Z,-2.90
2019-01-22T23:34:42.178Z,-2.90
2019-01-22T23:39:45.638Z,-3.00
2019-01-22T23:44:49.038Z,-3.00
2019-01-22T23:49:52.427Z,-3.00
2019-01-22T23:54:55.808Z,-3.00
2019-01-22T23:59:59.194Z,-3.00
